Time;durP1;ratioP1;P1;durP2;ratioP2;P2;SDS_P1;SDS_P2;PMS_P1;PMS_P2;Temp;Humidity;BMP_temperature;BMP_pressure;BME280_temperature;BME280_humidity;BME280_pressure;Samples;Min_cycle;Max_cycle;Signal;HPM_P1;HPM_P2
2022/05/26 00:00:12;;;;;;;8.18;3.83;;;15.50;99.90;;;;;;5031177;28;20033;-70
2022/05/26 00:02:39;;;;;;;7.22;3.95;;;15.40;99.90;;;;;;5023496;28;20075;-69
2022/05/26 00:05:10;;;;;;;5.85;3.85;;;15.50;99.90;;;;;;5028798;28;20022;-69
2022/05/26 00:07:37;;;;;;;8.77;4.65;;;15.40;99.90;;;;;;5024019;28;20021;-69
2022/05/26 00:10:05;;;;;;;6.18;4.75;;;15.40;99.90;;;;;;5014298;28;20034;-70
2022/05/26 00:12:32;;;;;;;7.65;5.53;;;15.30;99.90;;;;;;5016812;28;20030;-70
2022/05/26 00:14:59;;;;;;;7.50;5.00;;;15.30;99.90;;;;;;5018613;28;20038;-69
2022/05/26 00:17:28;;;;;;;10.65;5.88;;;15.40;99.90;;;;;;5015524;28;20164;-70
2022/05/26 00:19:56;;;;;;;8.75;5.20;;;15.40;99.90;;;;;;5013877;28;20022;-70
2022/05/26 00:22:23;;;;;;;7.18;5.43;;;15.60;99.90;;;;;;5020734;28;20086;-70
2022/05/26 00:24:51;;;;;;;6.13;5.03;;;15.80;99.90;;;;;;5030352;28;20420;-69
2022/05/26 00:27:18;;;;;;;7.55;4.00;;;15.90;99.90;;;;;;5013663;28;20037;-69
2022/05/26 00:29:45;;;;;;;7.55;3.88;;;15.80;99.90;;;;;;5015369;28;20041;-70
2022/05/26 00:32:12;;;;;;;9.25;4.43;;;16.00;99.90;;;;;;5022087;28;20429;-69
2022/05/26 00:34:40;;;;;;;5.53;3.28;;;16.20;99.90;;;;;;5029211;28;20552;-69
2022/05/26 00:37:09;;;;;;;4.78;2.95;;;16.40;99.90;;;;;;5028784;28;20022;-69
2022/05/26 00:39:38;;;;;;;4.65;3.15;;;16.60;99.90;;;;;;5013549;28;20096;-69
2022/05/26 00:42:07;;;;;;;3.67;2.50;;;16.60;99.90;;;;;;5021368;28;20025;-70
2022/05/26 00:44:35;;;;;;;3.47;2.67;;;16.70;99.90;;;;;;5019567;28;20029;-70
2022/05/26 00:47:34;;;;;;;4.68;2.63;;;16.90;99.90;;;;;;5027044;28;20100;-70
2022/05/26 00:50:24;;;;;;;6.28;2.58;;;16.90;99.90;;;;;;5022840;28;20041;-70
2022/05/26 00:53:02;;;;;;;7.03;3.15;;;17.00;99.90;;;;;;5014432;28;20449;-71
2022/05/26 00:55:35;;;;;;;5.88;3.10;;;16.90;99.90;;;;;;5017272;28;20049;-70
2022/05/26 00:58:17;;;;;;;4.57;3.15;;;17.10;99.90;;;;;;5013923;28;20053;-71
2022/05/26 01:00:45;;;;;;;6.60;3.42;;;17.10;99.90;;;;;;5023305;28;20022;-70
2022/05/26 01:03:22;;;;;;;5.28;3.28;;;17.00;99.90;;;;;;5023066;28;20032;-70
2022/05/26 01:06:04;;;;;;;4.18;2.92;;;17.00;99.90;;;;;;5021899;28;20364;-69
2022/05/26 01:09:00;;;;;;;5.32;2.70;;;17.20;99.90;;;;;;5023166;28;20029;-70
2022/05/26 01:11:31;;;;;;;5.32;2.97;;;17.30;99.90;;;;;;5023982;28;20378;-70
2022/05/26 01:14:23;;;;;;;5.70;2.83;;;17.40;99.90;;;;;;5025461;28;20045;-70
2022/05/26 01:17:11;;;;;;;6.25;2.53;;;17.50;99.90;;;;;;5026650;28;20041;-70
2022/05/26 01:20:35;;;;;;;4.70;2.75;;;17.70;99.90;;;;;;5027061;28;20390;-70
2022/05/26 01:23:18;;;;;;;9.07;3.17;;;17.70;99.90;;;;;;5039735;28;20080;-69
2022/05/26 01:26:10;;;;;;;5.32;3.00;;;17.60;99.90;;;;;;5047854;28;20140;-69
2022/05/26 01:29:01;;;;;;;10.77;3.03;;;17.70;99.90;;;;;;5033119;28;20089;-70
2022/05/26 01:31:55;;;;;;;8.65;2.22;;;17.80;99.90;;;;;;5013954;28;20028;-70
2022/05/26 01:34:42;;;;;;;7.95;2.97;;;18.00;99.90;;;;;;5018489;28;20057;-70
2022/05/26 01:37:20;;;;;;;4.15;2.25;;;18.10;99.90;;;;;;5025918;28;20092;-70
2022/05/26 01:40:11;;;;;;;4.05;2.22;;;18.30;99.90;;;;;;5024065;28;20014;-70
2022/05/26 01:42:54;;;;;;;5.10;1.85;;;18.40;99.90;;;;;;5013114;28;20048;-70
2022/05/26 01:45:43;;;;;;;7.38;2.25;;;18.60;99.90;;;;;;5021409;28;20053;-70
2022/05/26 01:48:29;;;;;;;5.22;1.77;;;18.90;99.90;;;;;;5012771;28;20077;-70
2022/05/26 01:51:11;;;;;;;3.95;1.50;;;19.10;99.90;;;;;;5015361;28;20097;-70
2022/05/26 01:53:44;;;;;;;7.97;1.67;;;19.20;99.90;;;;;;5023291;28;20138;-70
2022/05/26 01:56:31;;;;;;;3.07;1.30;;;19.20;99.90;;;;;;5031799;28;20025;-70
2022/05/26 01:59:22;;;;;;;4.65;1.58;;;19.00;99.90;;;;;;5013308;28;20034;-70
2022/05/26 02:02:00;;;;;;;3.00;1.20;;;19.30;99.90;;;;;;5012843;28;20022;-70
2022/05/26 02:04:39;;;;;;;5.90;1.17;;;19.80;99.90;;;;;;5025010;28;20525;-70
2022/05/26 02:07:33;;;;;;;4.78;1.75;;;19.80;99.90;;;;;;5019115;28;20025;-69
2022/05/26 02:10:06;;;;;;;3.85;1.30;;;19.60;99.90;;;;;;5020705;28;20037;-69
2022/05/26 02:12:41;;;;;;;3.42;1.30;;;20.30;99.90;;;;;;5014044;28;20076;-69
2022/05/26 02:15:24;;;;;;;4.47;1.40;;;20.10;99.90;;;;;;5024101;28;20242;-69
2022/05/26 02:17:59;;;;;;;2.78;1.30;;;20.30;99.90;;;;;;5024108;28;20024;-70
2022/05/26 02:20:38;;;;;;;3.40;1.88;;;21.10;99.90;;;;;;5028867;28;20018;-70
2022/05/26 02:23:18;;;;;;;5.15;1.77;;;21.50;99.90;;;;;;5026334;28;20037;-70
2022/05/26 02:25:46;;;;;;;8.10;1.52;;;21.90;99.90;;;;;;5028743;28;20067;-70
2022/05/26 02:28:14;;;;;;;3.08;1.45;;;21.70;99.90;;;;;;5022616;28;20021;-70
2022/05/26 02:30:43;;;;;;;5.75;1.83;;;21.60;99.90;;;;;;5031549;28;20486;-70
2022/05/26 02:33:15;;;;;;;3.85;1.88;;;22.10;99.90;;;;;;5021560;28;20061;-69
2022/05/26 02:35:45;;;;;;;2.50;1.08;;;22.30;99.90;;;;;;5026242;28;20026;-70
2022/05/26 02:38:22;;;;;;;5.90;1.42;;;22.10;99.90;;;;;;5024713;28;20021;-70
2022/05/26 02:40:54;;;;;;;6.13;1.30;;;22.20;99.90;;;;;;5026428;28;20028;-70
2022/05/26 02:43:27;;;;;;;5.72;1.30;;;22.10;99.90;;;;;;5027024;28;20084;-69
2022/05/26 02:46:11;;;;;;;7.85;1.30;;;22.20;99.90;;;;;;5020268;28;20478;-70
2022/05/26 02:48:47;;;;;;;;;;;22.00;99.90;;;;;;5030017;28;20018;-70
2022/05/26 02:51:34;;;;;;;7.20;1.23;;;22.10;99.90;;;;;;5019300;28;20332;-70
2022/05/26 02:54:04;;;;;;;4.10;1.50;;;22.20;99.90;;;;;;5018465;28;20042;-69
2022/05/26 02:56:52;;;;;;;5.80;1.85;;;21.60;99.90;;;;;;5020232;28;20459;-69
2022/05/26 02:59:44;;;;;;;4.97;1.00;;;22.10;99.90;;;;;;5016241;28;20026;-70
2022/05/26 03:02:40;;;;;;;4.60;1.30;;;22.50;99.90;;;;;;5024108;28;20018;-71
2022/05/26 03:05:28;;;;;;;7.00;2.05;;;23.10;99.90;;;;;;5027343;28;20064;-71
2022/05/26 03:07:58;;;;;;;4.38;1.45;;;22.60;99.90;;;;;;5015712;28;20029;-70
2022/05/26 03:10:31;;;;;;;4.47;1.13;;;22.30;99.90;;;;;;5025211;28;20042;-70
2022/05/26 03:13:00;;;;;;;2.65;0.90;;;21.70;99.90;;;;;;5016878;28;20065;-70
2022/05/26 03:15:29;;;;;;;4.07;0.80;;;21.30;99.90;;;;;;5014175;28;20022;-71
2022/05/26 03:17:57;;;;;;;4.93;1.00;;;21.20;99.90;;;;;;5016242;28;20364;-70
2022/05/26 03:20:25;;;;;;;2.58;0.68;;;21.80;99.90;;;;;;5017079;28;20022;-70
2022/05/26 03:22:52;;;;;;;2.92;0.88;;;21.70;99.90;;;;;;5023742;28;20025;-72
2022/05/26 03:25:19;;;;;;;3.92;0.95;;;21.60;99.90;;;;;;5024179;28;20057;-70
2022/05/26 03:27:46;;;;;;;8.52;1.23;;;20.70;99.90;;;;;;5018738;28;20034;-70
2022/05/26 03:30:14;;;;;;;3.85;0.70;;;20.10;99.90;;;;;;5020713;28;20038;-70
2022/05/26 03:32:42;;;;;;;4.30;0.73;;;20.10;99.90;;;;;;5022087;28;20022;-70
2022/05/26 03:40:53;;;;;;;4.35;1.10;;;20.40;99.90;;;;;;5026337;28;20036;-69
2022/05/26 03:43:24;;;;;;;3.15;0.70;;;20.50;99.90;;;;;;5022190;28;20114;-70
2022/05/26 03:45:51;;;;;;;5.00;1.40;;;21.00;99.90;;;;;;5017729;28;20030;-70
2022/05/26 03:48:18;;;;;;;5.30;0.80;;;20.40;99.90;;;;;;5017670;28;20034;-69
2022/05/26 03:50:46;;;;;;;3.42;0.70;;;20.50;99.90;;;;;;5019153;28;20394;-70
2022/05/26 03:53:13;;;;;;;4.80;0.80;;;20.40;99.90;;;;;;5017429;28;20084;-71
2022/05/26 03:55:40;;;;;;;8.50;1.35;;;20.70;99.90;;;;;;5025137;28;20108;-70
2022/05/26 03:58:08;;;;;;;7.32;1.40;;;21.20;99.90;;;;;;5022949;28;20026;-69
2022/05/26 04:00:35;;;;;;;5.82;1.13;;;20.70;99.90;;;;;;5025615;28;20043;-70
2022/05/26 04:03:03;;;;;;;5.75;0.73;;;20.40;99.90;;;;;;5022533;28;20030;-70
2022/05/26 04:05:31;;;;;;;5.00;0.85;;;20.80;99.90;;;;;;5019446;28;20034;-69
2022/05/26 04:07:59;;;;;;;5.18;1.02;;;21.00;99.90;;;;;;5014587;28;20091;-69
2022/05/26 04:10:29;;;;;;;10.45;1.75;;;20.80;99.90;;;;;;5024669;28;20118;-69
2022/05/26 04:12:56;;;;;;;6.45;1.02;;;20.70;99.90;;;;;;5023836;28;20029;-69
2022/05/26 04:15:24;;;;;;;3.08;0.80;;;20.30;99.90;;;;;;5016013;28;20018;-69
2022/05/26 04:17:51;;;;;;;4.43;0.93;;;19.70;99.90;;;;;;5020837;28;20482;-69
2022/05/26 04:20:21;;;;;;;5.25;1.05;;;19.50;99.90;;;;;;5018141;28;20169;-70
2022/05/26 04:22:50;;;;;;;10.68;1.23;;;19.70;99.90;;;;;;5020405;28;20033;-70
2022/05/26 04:25:20;;;;;;;2.75;0.85;;;19.60;99.90;;;;;;5025797;28;20029;-69
2022/05/26 04:27:47;;;;;;;4.57;1.52;;;19.50;99.90;;;;;;5027399;28;20021;-69
2022/05/26 04:30:15;;;;;;;2.20;0.90;;;19.30;99.90;;;;;;5026047;28;20025;-69
2022/05/26 04:32:42;;;;;;;5.68;1.27;;;19.30;99.90;;;;;;5028294;28;20036;-69
2022/05/26 04:35:10;;;;;;;6.18;1.40;;;19.30;99.90;;;;;;5025428;28;20026;-69
2022/05/26 04:37:38;;;;;;;5.05;1.20;;;19.40;99.90;;;;;;5023007;28;20021;-69
2022/05/26 04:40:08;;;;;;;7.25;1.10;;;19.30;99.90;;;;;;5026389;28;20032;-69
2022/05/26 04:42:36;;;;;;;6.40;1.08;;;19.20;99.90;;;;;;5025646;28;20026;-69
2022/05/26 04:45:05;;;;;;;4.82;1.30;;;19.10;99.90;;;;;;5019202;28;20021;-69
2022/05/26 04:47:32;;;;;;;3.03;0.82;;;19.10;99.90;;;;;;5023891;28;20030;-69
2022/05/26 04:50:00;;;;;;;3.00;0.82;;;19.10;99.90;;;;;;5023351;28;20068;-69
2022/05/26 04:52:27;;;;;;;5.13;1.00;;;18.90;99.90;;;;;;5017762;28;20060;-69
2022/05/26 04:54:54;;;;;;;6.35;0.90;;;18.80;99.90;;;;;;5027361;28;20478;-69
2022/05/26 04:57:24;;;;;;;4.35;0.98;;;19.00;99.90;;;;;;5029573;28;20076;-69
2022/05/26 04:59:52;;;;;;;3.90;0.90;;;18.90;99.90;;;;;;5031757;28;20049;-69
2022/05/26 05:02:22;;;;;;;4.53;1.27;;;18.90;99.90;;;;;;5023189;28;20049;-69
2022/05/26 05:04:49;;;;;;;9.27;1.20;;;18.80;99.90;;;;;;5018540;28;20030;-69
2022/05/26 05:07:18;;;;;;;3.38;1.10;;;18.80;99.90;;;;;;5017795;28;20018;-69
2022/05/26 05:09:47;;;;;;;2.63;1.15;;;18.90;99.90;;;;;;5018732;28;20040;-69
2022/05/26 05:12:18;;;;;;;4.40;1.35;;;18.90;99.90;;;;;;5025966;28;20501;-69
2022/05/26 05:14:48;;;;;;;6.20;1.70;;;18.90;99.90;;;;;;5031269;28;20046;-69
2022/05/26 05:17:18;;;;;;;4.32;1.58;;;18.80;99.90;;;;;;5025254;28;20392;-70
2022/05/26 05:19:46;;;;;;;6.05;1.13;;;18.90;99.90;;;;;;5029804;28;20017;-70
2022/05/26 05:22:28;;;;;;;5.38;1.25;;;18.80;99.90;;;;;;5026249;28;20106;-69
2022/05/26 05:24:59;;;;;;;5.97;1.58;;;18.90;99.90;;;;;;5021753;28;20022;-69
2022/05/26 05:27:34;;;;;;;5.85;1.65;;;18.80;99.90;;;;;;5028331;28;20425;-70
2022/05/26 05:30:06;;;;;;;7.38;1.42;;;18.80;99.90;;;;;;5026034;28;20056;-71
2022/05/26 05:32:44;;;;;;;8.30;1.58;;;18.80;99.90;;;;;;5023869;28;20105;-70
2022/05/26 05:35:19;;;;;;;3.47;0.80;;;18.80;99.90;;;;;;5029618;28;20029;-70
2022/05/26 05:37:47;;;;;;;5.60;1.25;;;18.80;99.90;;;;;;5019913;28;20104;-69
2022/05/26 05:40:14;;;;;;;3.58;0.93;;;18.70;99.90;;;;;;5023389;28;20036;-70
2022/05/26 05:42:42;;;;;;;2.88;0.90;;;18.70;99.90;;;;;;5019080;28;20088;-70
2022/05/26 05:45:10;;;;;;;5.53;1.10;;;18.70;99.90;;;;;;5024031;28;20100;-70
2022/05/26 05:47:37;;;;;;;3.03;0.90;;;18.70;99.90;;;;;;5019415;28;20481;-71
2022/05/26 05:50:06;;;;;;;7.47;1.48;;;18.70;99.90;;;;;;5029448;28;20087;-68
2022/05/26 05:52:35;;;;;;;2.88;0.93;;;18.70;99.90;;;;;;5021574;28;20088;-69
2022/05/26 05:55:04;;;;;;;5.97;1.13;;;18.60;99.90;;;;;;5024033;28;20033;-70
2022/05/26 05:57:32;;;;;;;8.57;1.10;;;18.60;99.90;;;;;;5026363;28;20029;-70
2022/05/26 05:59:59;;;;;;;4.40;1.17;;;18.60;99.90;;;;;;5027549;28;20046;-70
2022/05/26 06:02:26;;;;;;;4.80;0.93;;;18.60;99.90;;;;;;5024066;28;20044;-71
2022/05/26 06:04:53;;;;;;;3.42;1.00;;;18.60;99.90;;;;;;5016432;28;20034;-71
2022/05/26 06:07:22;;;;;;;4.78;0.98;;;18.50;99.90;;;;;;5014615;28;20064;-71
2022/05/26 06:09:51;;;;;;;4.43;0.63;;;18.40;99.90;;;;;;5029642;28;20376;-71
2022/05/26 06:12:19;;;;;;;5.03;1.00;;;18.40;99.90;;;;;;5031671;28;20026;-70
2022/05/26 06:14:46;;;;;;;3.08;0.85;;;18.40;99.90;;;;;;5030302;28;20089;-71
2022/05/26 06:17:14;;;;;;;5.88;1.25;;;18.40;99.90;;;;;;5027121;28;20018;-71
2022/05/26 06:19:43;;;;;;;4.32;1.00;;;18.40;99.90;;;;;;5030926;28;20017;-71
2022/05/26 06:22:16;;;;;;;4.05;1.27;;;18.30;99.90;;;;;;5020677;28;20034;-71
2022/05/26 06:24:43;;;;;;;5.40;1.10;;;18.30;99.90;;;;;;5013336;28;20602;-71
2022/05/26 06:29:59;;;;;;;5.68;1.38;;;18.20;99.90;;;;;;5025619;28;20414;-71
2022/05/26 06:38:03;;;;;;;5.72;1.67;;;18.00;99.90;;;;;;5020131;28;20052;-71
2022/05/26 06:40:31;;;;;;;4.05;1.10;;;18.00;99.90;;;;;;5025817;28;20486;-70
2022/05/26 06:42:59;;;;;;;3.85;1.58;;;17.90;99.90;;;;;;5022227;28;20092;-70
2022/05/26 06:45:27;;;;;;;6.18;1.40;;;17.90;99.90;;;;;;5019559;28;20390;-72
2022/05/26 06:47:54;;;;;;;6.32;1.83;;;17.90;99.90;;;;;;5024520;28;20025;-72
2022/05/26 06:50:22;;;;;;;7.20;1.30;;;17.80;99.90;;;;;;5021346;28;20382;-70
2022/05/26 06:52:50;;;;;;;6.78;1.30;;;17.80;99.90;;;;;;5024666;28;20407;-71
2022/05/26 06:55:18;;;;;;;5.53;1.52;;;17.70;99.90;;;;;;5015029;28;20075;-71
2022/05/26 06:57:45;;;;;;;4.05;1.52;;;17.60;99.90;;;;;;5021758;28;20479;-71
2022/05/26 07:00:15;;;;;;;6.25;1.90;;;17.60;99.90;;;;;;5031832;28;20026;-71
2022/05/26 07:02:42;;;;;;;8.95;2.22;;;17.60;99.90;;;;;;5027185;28;20148;-70
2022/05/26 07:05:11;;;;;;;4.55;1.25;;;17.60;99.90;;;;;;5032666;28;20052;-71
2022/05/26 07:07:40;;;;;;;5.43;1.23;;;17.50;99.90;;;;;;5017810;28;20022;-70
2022/05/26 07:10:09;;;;;;;3.65;1.10;;;17.50;99.90;;;;;;5026848;28;20017;-71
2022/05/26 07:12:37;;;;;;;5.88;1.52;;;17.50;99.90;;;;;;5025409;28;20018;-72
2022/05/26 07:15:06;;;;;;;2.97;1.20;;;17.50;99.90;;;;;;5028214;28;20026;-71
2022/05/26 07:17:34;;;;;;;4.43;1.48;;;17.50;99.90;;;;;;5023075;28;20034;-72
2022/05/26 07:20:01;;;;;;;6.70;1.63;;;17.40;99.90;;;;;;5016337;28;20033;-71
2022/05/26 07:22:34;;;;;;;3.53;1.73;;;17.40;99.90;;;;;;5015758;28;20412;-71
2022/05/26 07:25:01;;;;;;;5.07;1.20;;;17.40;99.90;;;;;;5017180;28;20041;-71
2022/05/26 07:27:28;;;;;;;4.32;1.30;;;17.40;99.90;;;;;;5024119;28;20049;-72
2022/05/26 07:29:55;;;;;;;7.35;1.52;;;17.30;99.90;;;;;;5031901;28;20033;-71
2022/05/26 07:32:23;;;;;;;5.82;2.70;;;17.30;99.90;;;;;;5018076;28;20101;-70
2022/05/26 07:34:50;;;;;;;6.82;1.98;;;17.30;99.90;;;;;;5023527;28;20033;-70
2022/05/26 07:42:52;;;;;;;14.18;2.30;;;17.20;99.90;;;;;;5016891;28;20076;-71
2022/05/26 07:45:20;;;;;;;2.97;1.38;;;17.20;99.90;;;;;;5032548;28;20029;-71
2022/05/26 07:47:47;;;;;;;6.55;1.75;;;17.10;99.90;;;;;;5024105;28;20372;-70
2022/05/26 07:50:21;;;;;;;6.20;2.40;;;17.10;99.90;;;;;;5022415;28;20121;-71
2022/05/26 07:52:52;;;;;;;5.22;1.85;;;17.10;99.90;;;;;;5024199;28;20065;-71
2022/05/26 07:55:20;;;;;;;6.72;1.65;;;17.10;99.90;;;;;;5027987;28;20571;-71
2022/05/26 07:57:47;;;;;;;5.65;1.85;;;17.10;99.90;;;;;;5016860;28;20390;-71
2022/05/26 08:00:17;;;;;;;5.90;2.00;;;17.00;99.90;;;;;;5033558;28;20470;-71
2022/05/26 08:02:45;;;;;;;4.75;2.15;;;17.00;99.90;;;;;;5023469;28;20040;-70
2022/05/26 08:05:13;;;;;;;6.10;2.13;;;17.00;99.90;;;;;;5024075;28;20486;-71
2022/05/26 08:07:43;;;;;;;5.90;1.70;;;17.00;99.90;;;;;;5030158;28;20593;-70
2022/05/26 08:10:11;;;;;;;5.95;2.20;;;17.00;99.90;;;;;;5020219;28;20022;-70
2022/05/26 08:12:38;;;;;;;9.40;3.03;;;17.00;99.90;;;;;;5016505;28;20049;-71
2022/05/26 08:15:06;;;;;;;7.88;4.32;;;17.00;99.90;;;;;;5014559;28;20036;-71
2022/05/26 08:17:34;;;;;;;36.58;20.20;;;17.00;99.90;;;;;;5017555;28;20025;-70
2022/05/26 08:20:01;;;;;;;28.65;13.52;;;17.00;99.90;;;;;;5031732;28;20017;-71
2022/05/26 08:22:29;;;;;;;24.58;10.75;;;17.00;99.90;;;;;;5023201;28;20022;-70
2022/05/26 08:24:58;;;;;;;17.83;7.88;;;17.00;99.90;;;;;;5025037;28;20029;-71
2022/05/26 08:27:26;;;;;;;31.88;16.00;;;17.00;99.90;;;;;;5028726;28;20029;-70
2022/05/26 08:29:54;;;;;;;19.45;10.50;;;17.00;99.90;;;;;;5019439;28;20522;-70
2022/05/26 08:32:22;;;;;;;14.65;6.50;;;16.90;99.90;;;;;;5020352;28;20539;-70
2022/05/26 08:34:50;;;;;;;15.98;8.43;;;16.90;99.90;;;;;;5024398;28;20045;-70
2022/05/26 08:37:21;;;;;;;10.07;5.20;;;16.90;99.90;;;;;;5014534;28;20492;-70
2022/05/26 08:39:49;;;;;;;13.35;6.05;;;16.90;99.90;;;;;;5022228;28;20033;-70
2022/05/26 08:42:31;;;;;;;13.02;5.00;;;16.80;99.90;;;;;;5016412;28;20105;-70
2022/05/26 08:45:06;;;;;;;11.75;5.78;;;16.80;99.90;;;;;;5019809;28;20076;-71
2022/05/26 08:47:48;;;;;;;13.05;6.25;;;16.80;99.90;;;;;;5016984;28;20127;-70
2022/05/26 08:50:27;;;;;;;15.23;6.03;;;16.80;99.90;;;;;;5021253;28;20432;-71
2022/05/26 08:53:06;;;;;;;11.13;5.20;;;16.80;99.90;;;;;;5022470;28;20520;-71
2022/05/26 08:55:47;;;;;;;11.48;4.82;;;16.80;99.90;;;;;;5026923;28;20029;-71
2022/05/26 08:58:25;;;;;;;12.95;5.57;;;16.80;99.90;;;;;;5030564;28;20049;-70
2022/05/26 09:00:54;;;;;;;13.30;5.93;;;16.70;99.90;;;;;;5031483;28;20056;-70
2022/05/26 09:03:31;;;;;;;11.23;5.65;;;16.70;99.90;;;;;;5013990;28;20030;-70
2022/05/26 09:06:07;;;;;;;12.90;5.32;;;16.70;99.90;;;;;;5024050;28;20109;-71
2022/05/26 09:14:34;;;;;;;11.77;4.18;;;16.70;99.90;;;;;;5013340;28;20041;-70
2022/05/26 09:17:09;;;;;;;9.07;3.45;;;16.70;99.90;;;;;;5030016;28;20049;-70
2022/05/26 09:19:45;;;;;;;6.30;3.22;;;16.70;99.90;;;;;;5014738;28;20030;-71
2022/05/26 09:22:44;;;;;;;10.10;3.65;;;16.70;99.90;;;;;;5028279;28;20057;-72
2022/05/26 09:25:38;;;;;;;10.35;3.75;;;16.70;99.90;;;;;;5018464;28;20485;-71
2022/05/26 09:28:09;;;;;;;9.02;3.58;;;16.60;99.90;;;;;;5021009;28;20417;-71
2022/05/26 09:30:37;;;;;;;9.27;3.15;;;16.60;99.90;;;;;;5013091;28;20022;-71
2022/05/26 09:33:27;;;;;;;8.77;4.35;;;16.60;99.90;;;;;;5022753;28;20379;-71
2022/05/26 09:35:54;;;;;;;10.10;4.10;;;16.50;99.90;;;;;;5021914;28;20033;-71
2022/05/26 09:38:32;;;;;;;8.15;3.15;;;16.50;99.90;;;;;;5019334;28;20033;-71
2022/05/26 09:41:07;;;;;;;9.65;3.25;;;16.50;99.90;;;;;;5016214;28;20030;-71
2022/05/26 09:43:38;;;;;;;6.97;2.75;;;16.50;99.90;;;;;;5023946;28;20030;-70
2022/05/26 09:46:15;;;;;;;5.88;3.03;;;16.40;99.90;;;;;;5025871;28;20049;-71
2022/05/26 09:48:46;;;;;;;10.80;3.33;;;16.40;99.90;;;;;;5012828;28;20069;-71
2022/05/26 09:51:21;;;;;;;9.20;3.22;;;16.30;99.90;;;;;;5020481;28;20036;-71
2022/05/26 09:53:52;;;;;;;14.25;3.70;;;16.30;99.90;;;;;;5027227;28;20124;-72
2022/05/26 09:56:40;;;;;;;8.73;3.00;;;16.20;99.90;;;;;;5029753;28;20057;-71
2022/05/26 09:59:34;;;;;;;9.05;2.90;;;16.20;99.90;;;;;;5031084;28;20029;-71
2022/05/26 10:02:36;;;;;;;7.25;3.33;;;16.20;99.90;;;;;;5031055;28;20045;-71
2022/05/26 10:05:19;;;;;;;8.13;2.63;;;16.20;99.90;;;;;;5031482;28;20030;-71
2022/05/26 10:08:08;;;;;;;10.13;2.73;;;16.20;99.90;;;;;;5019363;28;20041;-71
2022/05/26 10:10:41;;;;;;;6.25;2.50;;;16.20;99.90;;;;;;5016109;28;20021;-72
2022/05/26 10:13:37;;;;;;;6.57;2.38;;;16.20;99.90;;;;;;5028761;28;20044;-71
2022/05/26 10:16:37;;;;;;;6.32;2.72;;;16.20;99.90;;;;;;5022416;28;20502;-70
2022/05/26 10:19:34;;;;;;;6.82;2.40;;;16.20;99.90;;;;;;5024379;28;20030;-71
2022/05/26 10:22:43;;;;;;;9.70;4.05;;;16.20;99.90;;;;;;5023779;28;20018;-70
2022/05/26 10:25:24;;;;;;;8.25;3.15;;;16.20;99.90;;;;;;5029088;28;20057;-70
2022/05/26 10:28:09;;;;;;;5.82;2.50;;;16.10;99.90;;;;;;5023722;28;20133;-70
2022/05/26 10:30:59;;;;;;;7.75;3.08;;;16.10;99.90;;;;;;5018149;28;20087;-71
2022/05/26 10:33:41;;;;;;;5.28;2.58;;;16.10;99.90;;;;;;5028352;28;20021;-71
2022/05/26 10:36:20;;;;;;;10.35;2.80;;;16.10;99.90;;;;;;5030767;28;20488;-71
2022/05/26 10:39:05;;;;;;;6.65;3.00;;;16.00;99.90;;;;;;5017649;28;20026;-71
2022/05/26 10:41:35;;;;;;;8.50;3.15;;;16.00;99.90;;;;;;5028398;28;20022;-71
2022/05/26 10:44:15;;;;;;;3.58;2.38;;;15.90;99.90;;;;;;5022464;28;20461;-70
2022/05/26 10:46:51;;;;;;;7.55;2.97;;;15.90;99.90;;;;;;5018585;28;20030;-71
2022/05/26 10:49:43;;;;;;;7.43;3.00;;;15.90;99.90;;;;;;5032301;28;20021;-71
2022/05/26 10:52:33;;;;;;;6.45;3.00;;;15.80;99.90;;;;;;5017944;28;20136;-70
2022/05/26 10:55:11;;;;;;;6.38;3.20;;;15.80;99.90;;;;;;5026006;28;20037;-70
2022/05/26 10:57:54;;;;;;;5.47;2.67;;;15.70;99.90;;;;;;5023189;28;20501;-70
2022/05/26 11:00:26;;;;;;;9.32;3.22;;;15.80;99.90;;;;;;5023707;28;20029;-71
2022/05/26 11:03:08;;;;;;;4.97;2.63;;;15.70;99.90;;;;;;5022352;28;20053;-70
2022/05/26 11:05:51;;;;;;;8.43;2.85;;;15.70;99.90;;;;;;5022752;28;20387;-70
2022/05/26 11:08:33;;;;;;;7.50;3.95;;;15.70;99.90;;;;;;5017086;28;20029;-71
2022/05/26 11:11:12;;;;;;;4.93;2.67;;;15.80;99.90;;;;;;5022730;28;20486;-71
2022/05/26 11:13:43;;;;;;;6.60;4.05;;;15.80;99.90;;;;;;5028827;28;20037;-71
2022/05/26 11:19:34;;;;;;;10.65;3.53;;;15.90;99.90;;;;;;5022012;28;20040;-71
2022/05/26 11:22:03;;;;;;;8.25;2.55;;;15.90;99.90;;;;;;5023065;28;20450;-71
2022/05/26 11:24:32;;;;;;;7.93;2.83;;;15.90;99.90;;;;;;5028637;28;20044;-71
2022/05/26 11:27:08;;;;;;;6.50;2.20;;;15.90;99.90;;;;;;5018823;28;20471;-71
2022/05/26 11:29:45;;;;;;;7.15;2.90;;;15.90;99.90;;;;;;5032002;28;20033;-71
2022/05/26 11:38:08;;;;;;;4.45;2.63;;;15.60;99.90;;;;;;5020951;28;20513;-71
2022/05/26 11:40:55;;;;;;;6.75;3.08;;;15.60;99.90;;;;;;5018698;28;20024;-70
2022/05/26 11:43:33;;;;;;;7.72;3.28;;;15.50;99.90;;;;;;5029425;28;20026;-71
2022/05/26 11:46:01;;;;;;;6.13;2.10;;;15.50;99.90;;;;;;5018561;28;20124;-71
2022/05/26 11:48:34;;;;;;;7.40;3.15;;;15.40;99.90;;;;;;5019693;28;20033;-71
2022/05/26 11:51:03;;;;;;;10.75;3.63;;;15.40;99.90;;;;;;5016838;28;20467;-70
2022/05/26 11:53:38;;;;;;;4.40;2.60;;;15.40;99.90;;;;;;5017909;28;20200;-71
2022/05/26 11:56:25;;;;;;;6.55;3.20;;;15.40;99.90;;;;;;5024234;28;20014;-70
2022/05/26 11:59:32;;;;;;;6.50;2.80;;;15.30;99.90;;;;;;5028739;28;20026;-71
2022/05/26 12:02:08;;;;;;;6.43;3.13;;;15.30;99.90;;;;;;5016745;28;20382;-71
2022/05/26 12:04:41;;;;;;;6.05;3.22;;;15.30;99.90;;;;;;5024088;28;20042;-71
2022/05/26 12:07:18;;;;;;;6.32;2.95;;;15.30;99.90;;;;;;5022829;28;20029;-71
2022/05/26 12:09:55;;;;;;;7.93;3.90;;;15.30;99.90;;;;;;5018562;28;20029;-70
2022/05/26 12:12:25;;;;;;;6.75;2.88;;;15.30;99.90;;;;;;5024957;28;20036;-71
2022/05/26 12:14:52;;;;;;;9.55;4.05;;;15.30;99.90;;;;;;5020368;28;20492;-71
2022/05/26 12:17:34;;;;;;;6.45;3.20;;;15.30;99.90;;;;;;5026805;28;20021;-71
2022/05/26 12:20:13;;;;;;;7.80;3.50;;;15.30;99.90;;;;;;5023407;28;20053;-71
2022/05/26 12:22:47;;;;;;;4.20;2.72;;;15.40;99.90;;;;;;5025085;28;20021;-71
2022/05/26 12:26:11;;;;;;;7.38;3.78;;;15.50;99.90;;;;;;5026455;28;20017;-71
2022/05/26 12:28:41;;;;;;;8.73;4.43;;;15.50;99.90;;;;;;5013823;28;20029;-71
2022/05/26 12:31:11;;;;;;;9.93;3.67;;;15.50;99.90;;;;;;5000873;28;20033;-71
2022/05/26 12:33:56;;;;;;;10.68;3.60;;;15.60;99.90;;;;;;5022404;28;20053;-71
2022/05/26 12:36:23;;;;;;;7.75;3.72;;;15.60;99.90;;;;;;5027449;28;20025;-70
2022/05/26 12:39:43;;;;;;;8.05;3.53;;;15.60;99.90;;;;;;5022361;28;20159;-71
2022/05/26 12:42:45;;;;;;;9.13;3.13;;;15.60;99.90;;;;;;5016011;28;20080;-71
2022/05/26 12:45:17;;;;;;;8.18;3.10;;;15.60;99.90;;;;;;5022482;28;20103;-71
2022/05/26 12:48:05;;;;;;;7.80;3.70;;;15.60;99.90;;;;;;5017531;28;20038;-70
2022/05/26 12:50:40;;;;;;;11.05;3.47;;;15.50;99.90;;;;;;5027120;28;20018;-71
2022/05/26 12:53:29;;;;;;;10.45;3.97;;;15.40;99.90;;;;;;5026117;28;20375;-70
2022/05/26 12:56:29;;;;;;;7.63;4.85;;;15.40;99.90;;;;;;5023465;28;20522;-71
2022/05/26 12:58:59;;;;;;;8.05;3.45;;;15.40;99.90;;;;;;5019213;28;20021;-71
2022/05/26 13:01:29;;;;;;;7.28;4.38;;;15.40;99.90;;;;;;5028055;28;20037;-70
2022/05/26 13:04:15;;;;;;;14.85;4.65;;;15.40;99.90;;;;;;5025099;28;20030;-70
2022/05/26 13:06:50;;;;;;;11.30;4.85;;;15.40;99.90;;;;;;5030902;28;20116;-72
2022/05/26 13:09:21;;;;;;;9.77;4.45;;;15.40;99.90;;;;;;5021187;28;20087;-70
2022/05/26 13:11:53;;;;;;;8.77;4.78;;;15.30;99.90;;;;;;5019426;28;20350;-70
2022/05/26 13:14:38;;;;;;;10.63;5.30;;;15.30;99.90;;;;;;5026063;28;20054;-70
2022/05/26 13:17:12;;;;;;;12.10;4.25;;;15.30;99.90;;;;;;5023776;28;20033;-71
2022/05/26 13:20:00;;;;;;;12.00;4.25;;;15.30;99.90;;;;;;5021870;28;20053;-71
2022/05/26 13:22:39;;;;;;;9.63;4.57;;;15.30;99.90;;;;;;5016290;28;20052;-71
2022/05/26 13:25:10;;;;;;;9.98;5.13;;;15.30;99.90;;;;;;5021660;28;20083;-71
2022/05/26 13:28:04;;;;;;;18.27;5.18;;;15.20;99.90;;;;;;5029495;28;20389;-70
2022/05/26 13:33:41;;;;;;;9.85;5.03;;;15.30;99.90;;;;;;5020883;28;20103;-70
2022/05/26 13:36:18;;;;;;;12.40;4.85;;;15.20;99.90;;;;;;5027064;28;20033;-71
2022/05/26 13:38:46;;;;;;;7.85;4.90;;;15.20;99.90;;;;;;5013819;28;20486;-70
2022/05/26 13:41:24;;;;;;;9.95;5.57;;;15.10;99.90;;;;;;5019723;28;20051;-72
2022/05/26 13:43:52;;;;;;;12.23;5.07;;;15.10;99.90;;;;;;5025898;28;20053;-71
2022/05/26 13:46:36;;;;;;;12.13;5.53;;;15.00;99.90;;;;;;5031814;28;20025;-71
2022/05/26 13:49:16;;;;;;;10.95;5.60;;;15.00;99.90;;;;;;5026790;28;20048;-71
2022/05/26 13:51:49;;;;;;;12.88;6.03;;;15.00;99.90;;;;;;5021475;28;20049;-70
2022/05/26 13:54:35;;;;;;;11.13;6.37;;;15.00;99.90;;;;;;5014746;28;20034;-70
2022/05/26 13:57:25;;;;;;;11.70;5.18;;;15.00;99.90;;;;;;5021421;28;20532;-70
2022/05/26 14:00:00;;;;;;;10.95;5.78;;;14.90;99.90;;;;;;5021646;28;20497;-71
2022/05/26 14:02:34;;;;;;;9.57;5.10;;;14.80;99.90;;;;;;5027479;28;20033;-71